createdAt,value
2024-05-09T00:01:27.816Z,102428.22
2024-05-09T00:04:32.261Z,102433.50
2024-05-09T00:07:36.719Z,102427.28
2024-05-09T00:10:43.955Z,102428.28
2024-05-09T00:13:48.496Z,102426.63
2024-05-09T00:16:52.932Z,102420.47
2024-05-09T00:19:57.355Z,102430.34
2024-05-09T00:23:01.929Z,102432.06
2024-05-09T00:26:09.059Z,102424.19
2024-05-09T00:29:13.541Z,102424.19
2024-05-09T00:32:18.335Z,102426.84
2024-05-09T00:35:23.099Z,102430.44
2024-05-09T00:38:27.706Z,102421.63
2024-05-09T00:41:34.835Z,102426.06
2024-05-09T00:44:39.328Z,102426.97
2024-05-09T00:47:45.567Z,102417.31
2024-05-09T00:50:50.577Z,102418.34
2024-05-09T00:53:55.669Z,102422.75
2024-05-09T00:57:05.090Z,102418.34
2024-05-09T01:00:22.404Z,102429.81
2024-05-09T01:03:35.111Z,102433.38
2024-05-09T01:06:39.945Z,102430.63
2024-05-09T01:09:44.371Z,102430.69
2024-05-09T01:12:51.385Z,102423.56
2024-05-09T01:15:58.051Z,102419.19
2024-05-09T01:19:03.425Z,102413.22
2024-05-09T01:22:08.083Z,102405.28
2024-05-09T01:25:15.719Z,102412.25
2024-05-09T01:28:20.128Z,102408.81
2024-05-09T01:31:24.532Z,102406.22
2024-05-09T01:34:29.051Z,102399.16
2024-05-09T01:37:33.427Z,102403.63
2024-05-09T01:40:40.705Z,102399.16
2024-05-09T01:43:45.258Z,102395.56
2024-05-09T01:46:49.873Z,102393.00
2024-05-09T01:49:54.369Z,102393.94
2024-05-09T01:52:58.891Z,102392.19
2024-05-09T01:56:06.671Z,102393.88
2024-05-09T01:59:11.529Z,102386.91
2024-05-09T02:02:16.324Z,102388.75
2024-05-09T02:05:20.941Z,102388.69
2024-05-09T02:08:25.482Z,102396.69
2024-05-09T02:11:32.574Z,102398.44
2024-05-09T02:14:37.170Z,102390.63
2024-05-09T02:17:41.874Z,102395.91
2024-05-09T02:20:46.481Z,102397.69
2024-05-09T02:23:50.897Z,102395.78
2024-05-09T02:26:57.900Z,102401.06
2024-05-09T02:30:02.315Z,102399.44
2024-05-09T02:33:07.648Z,102403.13
2024-05-09T02:36:12.985Z,102398.78
2024-05-09T02:39:14.804Z,102395.25
2024-05-09T02:42:21.813Z,102390.88
2024-05-09T02:45:24.791Z,102398.84
2024-05-09T02:48:29.279Z,102397.13
2024-05-09T02:51:31.143Z,102397.09
2024-05-09T02:54:35.553Z,102394.44
2024-05-09T02:57:40.304Z,102391.84
2024-05-09T03:00:45.016Z,102394.50
2024-05-09T03:03:48.394Z,102394.53
2024-05-09T03:06:53.012Z,102391.00
2024-05-09T03:09:54.804Z,102388.38
2024-05-09T03:13:01.964Z,102391.84
2024-05-09T03:16:04.181Z,102391.88
2024-05-09T03:19:08.705Z,102389.25
2024-05-09T03:22:10.592Z,102391.84
2024-05-09T03:25:14.994Z,102396.28
2024-05-09T03:28:22.025Z,102389.25
2024-05-09T03:31:23.830Z,102388.34
2024-05-09T03:34:28.310Z,102388.38
2024-05-09T03:37:32.884Z,102391.03
2024-05-09T03:40:37.257Z,102392.78
2024-05-09T03:43:44.277Z,102394.53
2024-05-09T03:46:48.777Z,102398.03
2024-05-09T03:49:50.672Z,102399.84
2024-05-09T03:52:55.165Z,102397.22
2024-05-09T03:55:57.264Z,102394.63
2024-05-09T03:59:04.718Z,102400.81
2024-05-09T04:02:06.868Z,102390.25
2024-05-09T04:05:11.574Z,102398.97
2024-05-09T04:08:14.612Z,102388.41
2024-05-09T04:11:19.337Z,102384.00
2024-05-09T04:14:23.923Z,102391.94
2024-05-09T04:17:28.576Z,102385.75
2024-05-09T04:20:37.718Z,102385.75
2024-05-09T04:23:44.690Z,102389.25
2024-05-09T04:26:46.480Z,102384.78
2024-05-09T04:29:53.537Z,102388.31
2024-05-09T04:32:55.496Z,102383.00
2024-05-09T04:36:00.008Z,102385.59
2024-05-09T04:39:04.459Z,102395.31
2024-05-09T04:42:08.835Z,102395.28
2024-05-09T04:45:15.978Z,102391.81
2024-05-09T04:48:20.482Z,102400.56
2024-05-09T04:51:25.176Z,102398.72
2024-05-09T04:54:34.142Z,102393.41
2024-05-09T04:57:40.926Z,102403.03
2024-05-09T05:00:46.055Z,102402.97
2024-05-09T05:03:50.998Z,102401.16
2024-05-09T05:06:57.730Z,102399.28
2024-05-09T05:10:00.745Z,102390.38
2024-05-09T05:13:23.904Z,102399.97
2024-05-09T05:16:31.598Z,102401.66
2024-05-09T05:19:33.628Z,102402.44
2024-05-09T05:22:38.066Z,102401.34
2024-05-09T05:25:40.224Z,102404.00
2024-05-09T05:28:44.709Z,102403.91
2024-05-09T05:31:49.267Z,102402.00
2024-05-09T05:34:53.798Z,102405.25
2024-05-09T05:37:55.697Z,102398.91
2024-05-09T05:41:00.181Z,102396.84
2024-05-09T05:44:01.978Z,102399.34
2024-05-09T05:47:09.146Z,102392.19
2024-05-09T05:50:20.719Z,102402.50
2024-05-09T05:53:31.853Z,102402.13
2024-05-09T05:56:33.792Z,102408.09
2024-05-09T05:59:38.323Z,102397.91
2024-05-09T06:02:45.846Z,102401.84
2024-05-09T06:05:48.043Z,102397.00
2024-05-09T06:08:52.687Z,102401.97
2024-05-09T06:11:54.700Z,102398.91
2024-05-09T06:15:00.485Z,102387.84
2024-05-09T06:18:08.401Z,102385.72
2024-05-09T06:21:12.982Z,102386.56
2024-05-09T06:24:14.762Z,102394.94
2024-05-09T06:27:19.471Z,102385.50
2024-05-09T06:30:29.535Z,102383.44
2024-05-09T06:33:43.864Z,102383.19
2024-05-09T06:36:45.760Z,102384.63
2024-05-09T06:39:50.142Z,102386.25
2024-05-09T06:42:53.971Z,102385.84
2024-05-09T06:45:58.382Z,102390.19
2024-05-09T06:49:08.100Z,102389.81
2024-05-09T06:52:12.789Z,102392.56
2024-05-09T06:55:14.590Z,102384.31
2024-05-09T06:58:19.056Z,102387.47
2024-05-09T07:01:20.923Z,102391.50
2024-05-09T07:04:28.437Z,102395.56
2024-05-09T07:07:30.425Z,102383.88
2024-05-09T07:10:36.281Z,102390.09
2024-05-09T07:13:38.774Z,102387.66
2024-05-09T07:16:43.178Z,102391.75
2024-05-09T07:19:47.702Z,102392.44
2024-05-09T07:22:52.230Z,102397.31
2024-05-09T07:25:54.226Z,102398.91
2024-05-09T07:28:58.711Z,102399.41
2024-05-09T07:32:03.179Z,102398.94
2024-05-09T07:35:07.799Z,102405.50
2024-05-09T07:38:12.264Z,102396.75
2024-05-09T07:41:17.356Z,102400.28
2024-05-09T07:44:19.223Z,102398.63
2024-05-09T07:48:49.040Z,102391.13
2024-05-09T07:54:00.640Z,102384.09
2024-05-09T07:57:03.504Z,102387.88
2024-05-09T08:00:11.872Z,102384.81
2024-05-09T08:03:16.366Z,102381.75
2024-05-09T08:06:23.599Z,102379.25
2024-05-09T08:09:25.542Z,102374.53
2024-05-09T08:12:30.024Z,102381.19
2024-05-09T08:15:31.882Z,102376.22
2024-05-09T08:18:36.544Z,102369.47
2024-05-09T08:21:43.691Z,102374.91
2024-05-09T08:24:46.726Z,102366.84
2024-05-09T08:27:51.256Z,102369.91
2024-05-09T08:30:53.255Z,102365.22
2024-05-09T08:33:57.872Z,102365.59
2024-05-09T08:37:12.941Z,102366.19
2024-05-09T08:40:24.178Z,102363.19
2024-05-09T08:43:36.759Z,102363.78
2024-05-09T08:46:42.324Z,102358.31
2024-05-09T08:49:46.867Z,102363.56
2024-05-09T08:52:53.985Z,102355.19
2024-05-09T08:55:58.595Z,102365.53
2024-05-09T08:59:04.390Z,102358.47
2024-05-09T09:02:06.668Z,102367.63
2024-05-09T09:05:16.898Z,102350.84
2024-05-09T09:08:22.874Z,102354.94
2024-05-09T09:11:27.506Z,102352.16
2024-05-09T09:14:29.378Z,102353.72
2024-05-09T09:17:33.917Z,102350.56
2024-05-09T09:20:37.085Z,102349.97
2024-05-09T09:23:44.336Z,102353.59
2024-05-09T09:26:46.132Z,102356.91
2024-05-09T09:29:51.319Z,102359.34
2024-05-09T09:32:55.772Z,102353.59
2024-05-09T09:35:57.663Z,102361.50
2024-05-09T09:39:06.224Z,102361.66
2024-05-09T09:42:08.015Z,102343.66
2024-05-09T09:45:13.507Z,102349.69
2024-05-09T09:48:16.425Z,102345.94
2024-05-09T09:51:22.226Z,102342.41
2024-05-09T09:54:28.656Z,102337.22
2024-05-09T09:57:36.019Z,102341.31
2024-05-09T10:00:38.209Z,102333.03
2024-05-09T10:03:42.849Z,102329.41
2024-05-09T10:06:48.913Z,102335.44
2024-05-09T10:10:00.549Z,102322.59
2024-05-09T10:13:06.414Z,102325.34
2024-05-09T10:16:10.307Z,102328.31
2024-05-09T10:19:28.569Z,102320.16
2024-05-09T10:22:30.894Z,102319.69
2024-05-09T10:25:38.791Z,102311.53
2024-05-09T10:28:43.407Z,102309.13
2024-05-09T10:31:49.909Z,102306.84
2024-05-09T10:35:04.972Z,102301.31
2024-05-09T10:38:09.332Z,102309.38
2024-05-09T10:41:16.527Z,102304.94
2024-05-09T10:44:24.248Z,102304.44
2024-05-09T10:47:29.428Z,102298.53
2024-05-09T10:50:34.224Z,102290.53
2024-05-09T10:53:46.024Z,102286.44
2024-05-09T10:57:00.928Z,102273.63
2024-05-09T11:00:06.354Z,102281.56
2024-05-09T11:03:14.157Z,102286.44
2024-05-09T11:06:19.550Z,102280.56
2024-05-09T11:09:24.156Z,102280.41
2024-05-09T11:12:28.915Z,102287.06
2024-05-09T11:15:40.770Z,102275.16
2024-05-09T11:18:43.322Z,102267.34
2024-05-09T11:21:53.808Z,102260.63
2024-05-09T11:24:56.755Z,102265.94
2024-05-09T11:28:04.756Z,102265.25
2024-05-09T11:31:08.453Z,102259.53
2024-05-09T11:34:13.291Z,102257.38
2024-05-09T11:37:15.263Z,102251.03
2024-05-09T11:40:25.420Z,102255.69
2024-05-09T11:43:39.020Z,102242.97
2024-05-09T11:46:40.988Z,102243.19
2024-05-09T11:49:46.231Z,102242.78
2024-05-09T11:52:48.057Z,102235.50
2024-05-09T11:55:52.619Z,102236.56
2024-05-09T11:58:57.055Z,102237.22
2024-05-09T12:02:01.561Z,102228.03
2024-05-09T12:05:03.746Z,102231.41
2024-05-09T12:08:09.524Z,102235.47
2024-05-09T12:11:13.699Z,102230.56
2024-05-09T12:14:21.127Z,102233.91
2024-05-09T12:17:23.028Z,102226.31
2024-05-09T12:20:35.295Z,102226.47
2024-05-09T12:23:40.532Z,102225.28
2024-05-09T12:26:44.970Z,102220.91
2024-05-09T12:29:49.414Z,102214.81
2024-05-09T12:32:53.932Z,102220.00
2024-05-09T12:35:55.898Z,102208.53
2024-05-09T12:39:00.826Z,102206.41
2024-05-09T12:42:05.226Z,102195.22
2024-05-09T12:45:09.904Z,102204.06
2024-05-09T12:48:14.766Z,102190.75
2024-05-09T12:51:19.234Z,102193.13
2024-05-09T12:54:21.047Z,102199.53
2024-05-09T12:57:25.671Z,102181.38
2024-05-09T13:00:33.768Z,102181.50
2024-05-09T13:03:39.078Z,102180.31
2024-05-09T13:06:41.017Z,102178.94
2024-05-09T13:09:45.515Z,102183.56
2024-05-09T13:12:47.419Z,102187.84
2024-05-09T13:15:55.125Z,102184.38
2024-05-09T13:18:57.359Z,102171.03
2024-05-09T13:22:01.800Z,102168.56
2024-05-09T13:25:03.997Z,102171.03
2024-05-09T13:28:08.998Z,102175.47
2024-05-09T13:31:16.136Z,102165.50
2024-05-09T13:34:18.015Z,102164.50
2024-05-09T13:37:22.503Z,102159.75
2024-05-09T13:40:31.807Z,102159.38
2024-05-09T13:43:38.840Z,102162.06
2024-05-09T13:46:43.575Z,102158.44
2024-05-09T13:49:48.717Z,102153.81
2024-05-09T13:52:50.555Z,102156.31
2024-05-09T13:55:55.067Z,102150.69
2024-05-09T13:58:56.914Z,102145.69
2024-05-09T14:02:04.009Z,102143.94
2024-05-09T14:05:06.694Z,102141.91
2024-05-09T14:08:11.352Z,102134.59
2024-05-09T14:11:13.251Z,102126.78
2024-05-09T14:14:17.763Z,102136.34
2024-05-09T14:17:22.814Z,102131.38
2024-05-09T14:20:31.646Z,102120.97
2024-05-09T14:23:34.360Z,102119.59
2024-05-09T14:26:38.854Z,102112.88
2024-05-09T14:29:41.471Z,102113.84
2024-05-09T14:32:49.066Z,102114.06
2024-05-09T14:35:51.187Z,102113.00
2024-05-09T14:38:55.626Z,102119.25
2024-05-09T14:41:57.423Z,102110.06
2024-05-09T14:45:02.125Z,102112.59
2024-05-09T14:48:07.929Z,102114.16
2024-05-09T14:51:12.463Z,102104.16
2024-05-09T14:54:16.947Z,102103.03
2024-05-09T14:57:18.966Z,102102.00
2024-05-09T15:00:28.892Z,102096.72
2024-05-09T15:03:37.841Z,102093.91
2024-05-09T15:06:43.131Z,102095.09
2024-05-09T15:09:47.646Z,102094.88
2024-05-09T15:12:49.490Z,102091.53
2024-05-09T15:15:54.648Z,102087.81
2024-05-09T15:18:59.852Z,102086.94
2024-05-09T15:22:04.540Z,102079.34
2024-05-09T15:25:07.059Z,102081.50
2024-05-09T15:28:11.725Z,102080.34
2024-05-09T15:31:13.615Z,102073.69
2024-05-09T15:34:20.681Z,102079.88
2024-05-09T15:37:25.401Z,102076.75
2024-05-09T15:40:37.492Z,102069.84
2024-05-09T15:43:42.017Z,102071.22
2024-05-09T15:46:46.465Z,102072.25
2024-05-09T15:49:51.136Z,102069.84
2024-05-09T15:52:55.662Z,102065.13
2024-05-09T15:56:00.174Z,102069.28
2024-05-09T15:59:02.139Z,102066.38
2024-05-09T16:02:07.690Z,102063.06
2024-05-09T16:05:15.041Z,102058.06
2024-05-09T16:08:19.798Z,102060.75
2024-05-09T16:11:21.604Z,102059.97
2024-05-09T16:14:26.084Z,102056.19
2024-05-09T16:17:30.652Z,102045.25
2024-05-09T16:20:40.128Z,102050.91
2024-05-09T16:23:47.187Z,102046.00
2024-05-09T16:26:49.051Z,102057.84
2024-05-09T16:29:53.629Z,102047.25
2024-05-09T16:32:55.889Z,102056.31
2024-05-09T16:36:03.135Z,102048.31
2024-05-09T16:39:04.947Z,102049.53
2024-05-09T16:42:09.673Z,102055.44
2024-05-09T16:45:14.068Z,102056.38
2024-05-09T16:48:16.844Z,102065.59
2024-05-09T16:51:24.260Z,102067.69
2024-05-09T16:54:26.026Z,102061.03
2024-05-09T16:57:30.533Z,102059.88
2024-05-09T17:00:40.808Z,102058.84
2024-05-09T17:03:45.123Z,102059.19
2024-05-09T17:06:52.319Z,102065.03
2024-05-09T17:09:54.494Z,102054.63
2024-05-09T17:12:59.008Z,102055.13
2024-05-09T17:16:03.584Z,102056.00
2024-05-09T17:19:08.050Z,102062.41
2024-05-09T17:22:13.470Z,102064.75
2024-05-09T17:25:18.516Z,102059.22
2024-05-09T17:28:23.199Z,102057.22
2024-05-09T17:31:25.063Z,102058.31
2024-05-09T17:34:29.678Z,102066.19
2024-05-09T17:37:36.940Z,102064.88
2024-05-09T17:40:41.387Z,102063.69
2024-05-09T17:43:46.909Z,102055.53
2024-05-09T17:46:48.749Z,102054.16
2024-05-09T17:49:53.211Z,102054.16
2024-05-09T17:53:00.335Z,102050.19
2024-05-09T17:56:02.685Z,102048.44
2024-05-09T17:59:10.046Z,102052.34
2024-05-09T18:02:15.830Z,102059.00
2024-05-09T18:05:17.805Z,102057.09
2024-05-09T18:08:24.886Z,102052.81
2024-05-09T18:11:26.719Z,102052.38
2024-05-09T18:14:31.234Z,102056.25
2024-05-09T18:17:33.272Z,102062.19
2024-05-09T18:20:43.955Z,102054.94
2024-05-09T18:23:55.492Z,102060.31
2024-05-09T18:26:59.471Z,102064.88
2024-05-09T18:30:07.091Z,102058.19
2024-05-09T18:33:12.991Z,102071.06
2024-05-09T18:36:17.795Z,102067.88
2024-05-09T18:39:24.834Z,102067.75
2024-05-09T18:42:26.636Z,102066.16
2024-05-09T18:45:31.720Z,102071.66
2024-05-09T18:48:36.683Z,102071.38
2024-05-09T18:51:38.606Z,102063.72
2024-05-09T18:54:45.679Z,102067.19
2024-05-09T18:57:50.145Z,102081.84
2024-05-09T19:00:54.299Z,102079.25
2024-05-09T19:04:00.121Z,102089.44
2024-05-09T19:07:05.222Z,102079.00
2024-05-09T19:10:21.863Z,102084.31
2024-05-09T19:13:30.131Z,102080.19
2024-05-09T19:16:34.617Z,102088.53
2024-05-09T19:19:37.001Z,102087.56
2024-05-09T19:22:41.461Z,102089.88
2024-05-09T19:25:48.689Z,102090.88
2024-05-09T19:28:50.727Z,102081.88
2024-05-09T19:31:55.188Z,102093.53
2024-05-09T19:34:57.085Z,102096.91
2024-05-09T19:38:01.623Z,102093.38
2024-05-09T19:41:06.038Z,102097.91
2024-05-09T19:44:10.478Z,102094.78
2024-05-09T19:47:12.387Z,102094.25
2024-05-09T19:50:23.194Z,102089.94
2024-05-09T19:53:36.045Z,102092.91
2024-05-09T19:56:44.809Z,102096.69
2024-05-09T19:59:49.277Z,102095.06
2024-05-09T20:02:51.286Z,102103.44
2024-05-09T20:05:55.899Z,102096.53
2024-05-09T20:08:58.871Z,102093.72
2024-05-09T20:12:06.202Z,102099.06
2024-05-09T20:15:08.768Z,102102.94
2024-05-09T20:18:13.447Z,102093.09
2024-05-09T20:21:15.561Z,102096.13
2024-05-09T20:24:20.006Z,102092.84
2024-05-09T20:27:27.814Z,102090.53
2024-05-09T20:30:32.868Z,102093.41
2024-05-09T20:33:38.631Z,102091.66
2024-05-09T20:36:40.557Z,102099.00
2024-05-09T20:39:45.067Z,102097.28
2024-05-09T20:42:49.573Z,102094.69
2024-05-09T20:45:54.065Z,102094.03
2024-05-09T20:48:56.367Z,102101.09
2024-05-09T20:52:01.055Z,102096.63
2024-05-09T20:55:03.002Z,102098.75
2024-05-09T20:58:10.836Z,102091.41
2024-05-09T21:01:12.833Z,102086.50
2024-05-09T21:04:17.478Z,102092.53
2024-05-09T21:07:19.621Z,102095.13
2024-05-09T21:10:26.960Z,102092.53
2024-05-09T21:13:31.896Z,102093.75
2024-05-09T21:16:36.562Z,102084.88
2024-05-09T21:19:38.420Z,102088.66
2024-05-09T21:22:42.822Z,102083.81
2024-05-09T21:25:44.634Z,102084.97
2024-05-09T21:28:52.098Z,102087.53
2024-05-09T21:31:56.636Z,102085.81
2024-05-09T21:34:58.503Z,102091.50
2024-05-09T21:38:04.526Z,102082.69
2024-05-09T21:41:07.324Z,102090.72
2024-05-09T21:44:14.448Z,102088.47
2024-05-09T21:47:16.301Z,102093.13
2024-05-09T21:50:27.617Z,102091.34
2024-05-09T21:53:37.816Z,102091.16
2024-05-09T21:56:39.754Z,102091.16
2024-05-09T21:59:47.465Z,102093.84
2024-05-09T22:02:49.416Z,102086.91
2024-05-09T22:05:53.880Z,102090.66
2024-05-09T22:08:55.697Z,102087.00
2024-05-09T22:12:00.160Z,102093.38
2024-05-09T22:15:05.335Z,102097.09
2024-05-09T22:18:11.054Z,102084.56
2024-05-09T22:21:16.026Z,102092.59
2024-05-09T22:24:17.816Z,102090.72
2024-05-09T22:27:22.338Z,102081.81
2024-05-09T22:30:35.546Z,102088.53
2024-05-09T22:33:46.260Z,102084.13
2024-05-09T22:36:49.462Z,102080.81
2024-05-09T22:39:53.942Z,102070.22
2024-05-09T22:42:55.971Z,102069.38
2024-05-09T22:46:05.259Z,102070.31
2024-05-09T22:49:07.252Z,102063.72
2024-05-09T22:52:11.822Z,102064.72
2024-05-09T22:55:16.467Z,102061.28
2024-05-09T22:58:19.119Z,102058.53
2024-05-09T23:01:27.322Z,102063.72
2024-05-09T23:04:29.207Z,102058.91
2024-05-09T23:07:33.628Z,102056.09
2024-05-09T23:10:37.686Z,102055.06
2024-05-09T23:13:42.993Z,102064.25
2024-05-09T23:16:47.456Z,102060.41
2024-05-09T23:19:51.916Z,102053.63
2024-05-09T23:22:53.696Z,102057.22
2024-05-09T23:25:58.091Z,102059.88
2024-05-09T23:29:02.539Z,102062.06
2024-05-09T23:32:10.727Z,102055.09
2024-05-09T23:35:12.684Z,102048.81
2024-05-09T23:38:18.431Z,102049.69
2024-05-09T23:41:21.375Z,102054.56
2024-05-09T23:44:25.786Z,102052.78
2024-05-09T23:47:32.884Z,102044.88
2024-05-09T23:50:37.709Z,102041.56
2024-05-09T23:53:47.088Z,102038.59
2024-05-09T23:56:48.892Z,102038.25
2024-05-09T23:59:53.379Z,102027.69
